createdAt,value
2023-04-25T00:01:48.717Z,11.20
2023-04-25T00:11:50.641Z,12.25
2023-04-25T00:21:56.952Z,13.73
2023-04-25T00:32:04.959Z,11.15
2023-04-25T00:42:07.215Z,11.52
2023-04-25T00:52:34.215Z,12.38
2023-04-25T01:02:37.557Z,11.40
2023-04-25T01:12:45.739Z,10.40
2023-04-25T01:22:56.286Z,9.77
2023-04-25T01:32:58.906Z,8.05
2023-04-25T01:43:02.141Z,8.55
2023-04-25T01:53:05.075Z,7.78
2023-04-25T02:03:09.997Z,8.60
2023-04-25T02:13:26.330Z,6.75
2023-04-25T02:23:29.409Z,7.43
2023-04-25T02:33:31.453Z,8.15
2023-04-25T02:43:33.556Z,7.40
2023-04-25T02:53:35.723Z,7.47
2023-04-25T03:03:37.702Z,8.07
2023-04-25T03:13:39.716Z,6.03
2023-04-25T03:23:41.748Z,6.88
2023-04-25T03:33:43.679Z,6.18
2023-04-25T03:43:45.664Z,5.38
2023-04-25T03:53:47.679Z,4.82
2023-04-25T04:03:50.102Z,3.97
2023-04-25T04:13:53.614Z,6.43
2023-04-25T04:23:56.087Z,5.45
2023-04-25T04:33:58.116Z,5.70
2023-04-25T04:44:02.399Z,6.15
2023-04-25T04:54:05.081Z,5.50
2023-04-25T05:04:13.149Z,8.27
2023-04-25T05:14:16.528Z,6.43
2023-04-25T05:24:19.676Z,7.38
2023-04-25T05:34:21.756Z,7.57
2023-04-25T05:44:24.835Z,6.53
2023-04-25T05:54:52.378Z,7.30
2023-04-25T06:05:00.781Z,7.63
2023-04-25T06:15:10.506Z,4.95
2023-04-25T06:25:20.113Z,5.25
2023-04-25T06:35:22.564Z,6.15
2023-04-25T06:45:37.237Z,5.80
2023-04-25T06:55:50.269Z,5.70
2023-04-25T07:05:52.234Z,6.30
2023-04-25T07:15:56.064Z,5.25
2023-04-25T07:26:04.257Z,4.90
2023-04-25T07:36:06.591Z,4.97
2023-04-25T07:46:09.678Z,3.72
2023-04-25T07:56:17.888Z,3.90
2023-04-25T08:06:41.948Z,3.97
2023-04-25T08:16:49.891Z,4.40
2023-04-25T08:26:54.118Z,2.78
2023-04-25T08:36:57.251Z,3.90
2023-04-25T08:47:07.227Z,3.92
2023-04-25T08:57:09.463Z,3.47
2023-04-25T09:07:13.590Z,11.27
2023-04-25T09:17:15.579Z,4.30
2023-04-25T09:27:24.262Z,5.00
2023-04-25T09:37:36.179Z,4.55
2023-04-25T09:47:41.410Z,4.78
2023-04-25T09:57:47.510Z,4.70
2023-04-25T10:07:49.622Z,5.13
2023-04-25T10:17:52.427Z,4.72
2023-04-25T10:28:02.228Z,4.75
2023-04-25T10:38:13.757Z,4.75
2023-04-25T10:48:31.472Z,4.43
2023-04-25T10:58:33.675Z,3.65
2023-04-25T11:08:50.971Z,3.50
2023-04-25T11:19:01.451Z,3.83
2023-04-25T11:29:18.720Z,3.38
2023-04-25T11:39:39.147Z,4.95
2023-04-25T11:49:41.129Z,1.77
2023-04-25T11:59:49.190Z,4.82
2023-04-25T12:09:58.586Z,2.08
2023-04-25T12:20:01.121Z,4.00
2023-04-25T12:30:06.297Z,3.83
2023-04-25T12:40:10.139Z,3.55
2023-04-25T12:50:16.185Z,4.30
2023-04-25T13:00:21.025Z,5.35
2023-04-25T13:10:23.040Z,4.55
2023-04-25T13:20:27.220Z,4.68
2023-04-25T13:30:29.475Z,4.65
2023-04-25T13:40:33.195Z,5.88
2023-04-25T13:50:41.338Z,5.88
2023-04-25T14:00:48.342Z,5.60
2023-04-25T14:10:50.367Z,6.30
2023-04-25T14:20:52.584Z,7.90
2023-04-25T14:30:56.756Z,7.45
2023-04-25T14:41:05.623Z,5.25
2023-04-25T14:51:09.243Z,4.30
2023-04-25T15:01:14.401Z,4.90
2023-04-25T15:11:19.439Z,4.75
2023-04-25T15:21:22.115Z,5.13
2023-04-25T15:31:25.198Z,4.78
2023-04-25T15:41:48.296Z,4.30
2023-04-25T15:51:53.584Z,4.78
2023-04-25T16:02:16.689Z,7.55
2023-04-25T16:12:18.913Z,8.60
2023-04-25T16:22:22.212Z,6.65
2023-04-25T16:32:30.269Z,5.30
2023-04-25T16:42:32.289Z,3.63
2023-04-25T16:52:59.453Z,4.75
2023-04-25T17:03:04.636Z,4.95
2023-04-25T17:13:12.626Z,6.32
2023-04-25T17:23:19.496Z,6.18
2023-04-25T17:33:38.328Z,5.70
2023-04-25T17:44:08.690Z,7.60
2023-04-25T17:54:12.162Z,6.75
2023-04-25T18:04:20.850Z,6.75
2023-04-25T18:14:23.071Z,5.95
2023-04-25T18:24:27.605Z,6.00
2023-04-25T18:34:31.632Z,9.35
2023-04-25T18:44:37.765Z,9.73
2023-04-25T18:54:40.323Z,8.30
2023-04-25T19:04:44.032Z,8.55
2023-04-25T19:14:46.793Z,12.48
2023-04-25T19:24:55.709Z,12.00
2023-04-25T19:35:12.387Z,8.60
2023-04-25T19:45:16.957Z,8.70
2023-04-25T19:55:20.062Z,7.65
2023-04-25T20:05:22.613Z,8.05
2023-04-25T20:15:26.436Z,7.30
2023-04-25T20:25:30.203Z,9.00
2023-04-25T20:35:34.616Z,8.98
2023-04-25T20:45:48.999Z,8.40
2023-04-25T20:56:01.802Z,8.43
2023-04-25T21:06:05.055Z,9.30
2023-04-25T21:16:11.047Z,9.40
2023-04-25T21:26:13.053Z,10.60
2023-04-25T21:36:14.964Z,13.65
2023-04-25T21:46:23.506Z,13.13
2023-04-25T21:56:26.129Z,11.95
2023-04-25T22:06:30.058Z,9.70
2023-04-25T22:16:33.722Z,7.35
2023-04-25T22:26:36.085Z,6.15
2023-04-25T22:36:40.786Z,7.47
2023-04-25T22:46:43.442Z,7.47
2023-04-25T22:56:45.515Z,5.97
2023-04-25T23:06:49.017Z,6.88
2023-04-25T23:17:00.524Z,6.95
2023-04-25T23:27:04.160Z,6.40
2023-04-25T23:37:06.222Z,5.95
2023-04-25T23:47:10.295Z,6.30
2023-04-25T23:57:12.402Z,5.80
